sensor_id;sensor_type;location;lat;lon;timestamp;temperature;humidity
48752;DHT22;34544;48.836;9.174;2022-11-15T00:01:53;10.00;99.90
48752;DHT22;34544;48.836;9.174;2022-11-15T00:04:38;10.00;99.90
48752;DHT22;34544;48.836;9.174;2022-11-15T00:07:22;10.10;99.90
48752;DHT22;34544;48.836;9.174;2022-11-15T00:10:06;10.10;99.90
48752;DHT22;34544;48.836;9.174;2022-11-15T00:12:51;10.10;99.90
48752;DHT22;34544;48.836;9.174;2022-11-15T00:15:36;10.10;99.90
48752;DHT22;34544;48.836;9.174;2022-11-15T00:18:20;10.20;99.90
48752;DHT22;34544;48.836;9.174;2022-11-15T00:21:10;10.20;99.90
48752;DHT22;34544;48.836;9.174;2022-11-15T00:23:56;10.10;99.90
48752;DHT22;34544;48.836;9.174;2022-11-15T00:26:40;10.20;99.90
48752;DHT22;34544;48.836;9.174;2022-11-15T00:29:24;10.10;99.90
48752;DHT22;34544;48.836;9.174;2022-11-15T00:32:11;10.10;99.90
48752;DHT22;34544;48.836;9.174;2022-11-15T00:34:56;10.10;99.90
48752;DHT22;34544;48.836;9.174;2022-11-15T00:37:40;10.20;99.90
48752;DHT22;34544;48.836;9.174;2022-11-15T00:40:24;10.20;99.90
48752;DHT22;34544;48.836;9.174;2022-11-15T00:43:08;10.30;99.90
48752;DHT22;34544;48.836;9.174;2022-11-15T00:45:52;10.30;99.90
48752;DHT22;34544;48.836;9.174;2022-11-15T00:48:37;10.30;99.90
48752;DHT22;34544;48.836;9.174;2022-11-15T00:51:21;10.20;99.90
48752;DHT22;34544;48.836;9.174;2022-11-15T00:54:06;10.10;99.90
48752;DHT22;34544;48.836;9.174;2022-11-15T00:56:50;10.00;99.90
48752;DHT22;34544;48.836;9.174;2022-11-15T00:59:34;9.90;99.90
48752;DHT22;34544;48.836;9.174;2022-11-15T01:02:19;9.80;99.90
48752;DHT22;34544;48.836;9.174;2022-11-15T01:05:03;9.70;99.90
48752;DHT22;34544;48.836;9.174;2022-11-15T01:07:52;9.60;99.90
48752;DHT22;34544;48.836;9.174;2022-11-15T01:10:36;9.50;99.90
48752;DHT22;34544;48.836;9.174;2022-11-15T01:13:20;9.40;99.90
48752;DHT22;34544;48.836;9.174;2022-11-15T01:16:09;9.30;99.90
48752;DHT22;34544;48.836;9.174;2022-11-15T01:18:53;9.20;99.90
48752;DHT22;34544;48.836;9.174;2022-11-15T01:21:38;9.10;99.90
48752;DHT22;34544;48.836;9.174;2022-11-15T01:24:22;9.00;99.90
48752;DHT22;34544;48.836;9.174;2022-11-15T01:27:06;8.90;99.90
48752;DHT22;34544;48.836;9.174;2022-11-15T01:29:50;8.80;99.90
48752;DHT22;34544;48.836;9.174;2022-11-15T01:32:34;8.70;99.90
48752;DHT22;34544;48.836;9.174;2022-11-15T01:35:18;8.60;99.90
48752;DHT22;34544;48.836;9.174;2022-11-15T01:38:04;8.50;99.90
48752;DHT22;34544;48.836;9.174;2022-11-15T01:40:48;8.40;99.90
48752;DHT22;34544;48.836;9.174;2022-11-15T01:43:35;8.20;99.90
48752;DHT22;34544;48.836;9.174;2022-11-15T01:49:17;7.90;99.90
48752;DHT22;34544;48.836;9.174;2022-11-15T01:52:05;7.80;99.90
48752;DHT22;34544;48.836;9.174;2022-11-15T01:54:57;7.70;99.90
48752;DHT22;34544;48.836;9.174;2022-11-15T01:57:46;7.60;99.90
48752;DHT22;34544;48.836;9.174;2022-11-15T02:00:31;7.50;99.90
48752;DHT22;34544;48.836;9.174;2022-11-15T02:03:16;7.50;99.90
48752;DHT22;34544;48.836;9.174;2022-11-15T02:06:02;7.40;99.90
48752;DHT22;34544;48.836;9.174;2022-11-15T02:08:47;7.30;99.90
48752;DHT22;34544;48.836;9.174;2022-11-15T02:11:33;7.40;99.90
48752;DHT22;34544;48.836;9.174;2022-11-15T02:14:19;7.40;99.90
48752;DHT22;34544;48.836;9.174;2022-11-15T02:23:42;7.60;99.90
48752;DHT22;34544;48.836;9.174;2022-11-15T02:27:18;7.60;99.90
48752;DHT22;34544;48.836;9.174;2022-11-15T02:34:22;7.70;99.90
48752;DHT22;34544;48.836;9.174;2022-11-15T02:36:41;7.70;99.90
48752;DHT22;34544;48.836;9.174;2022-11-15T02:39:35;7.80;99.90
48752;DHT22;34544;48.836;9.174;2022-11-15T02:42:32;7.80;99.90
48752;DHT22;34544;48.836;9.174;2022-11-15T02:45:43;7.80;99.90
48752;DHT22;34544;48.836;9.174;2022-11-15T02:48:29;7.90;99.90
48752;DHT22;34544;48.836;9.174;2022-11-15T02:51:15;7.90;99.90
48752;DHT22;34544;48.836;9.174;2022-11-15T02:54:00;7.90;99.90
48752;DHT22;34544;48.836;9.174;2022-11-15T02:56:45;7.90;99.90
48752;DHT22;34544;48.836;9.174;2022-11-15T02:59:52;7.90;99.90
48752;DHT22;34544;48.836;9.174;2022-11-15T03:06:38;7.90;99.90
48752;DHT22;34544;48.836;9.174;2022-11-15T03:15:25;7.90;99.90
48752;DHT22;34544;48.836;9.174;2022-11-15T03:18:19;7.80;99.90
48752;DHT22;34544;48.836;9.174;2022-11-15T03:21:08;7.70;99.90
48752;DHT22;34544;48.836;9.174;2022-11-15T03:23:58;7.60;99.90
48752;DHT22;34544;48.836;9.174;2022-11-15T03:26:46;7.60;99.90
48752;DHT22;34544;48.836;9.174;2022-11-15T03:29:33;7.50;99.90
48752;DHT22;34544;48.836;9.174;2022-11-15T03:32:24;7.50;99.90
48752;DHT22;34544;48.836;9.174;2022-11-15T03:35:13;7.50;99.90
48752;DHT22;34544;48.836;9.174;2022-11-15T03:38:23;7.40;99.90
48752;DHT22;34544;48.836;9.174;2022-11-15T03:41:17;7.40;99.90
48752;DHT22;34544;48.836;9.174;2022-11-15T03:47:27;7.40;99.90
48752;DHT22;34544;48.836;9.174;2022-11-15T03:50:16;7.40;99.90
48752;DHT22;34544;48.836;9.174;2022-11-15T03:53:01;7.30;99.90
48752;DHT22;34544;48.836;9.174;2022-11-15T03:55:45;7.30;99.90
48752;DHT22;34544;48.836;9.174;2022-11-15T03:58:30;7.30;99.90
48752;DHT22;34544;48.836;9.174;2022-11-15T04:01:13;7.30;99.90
48752;DHT22;34544;48.836;9.174;2022-11-15T04:03:58;7.30;99.90
48752;DHT22;34544;48.836;9.174;2022-11-15T04:06:42;7.40;99.90
48752;DHT22;34544;48.836;9.174;2022-11-15T04:09:26;7.50;99.90
48752;DHT22;34544;48.836;9.174;2022-11-15T04:12:10;7.60;99.90
48752;DHT22;34544;48.836;9.174;2022-11-15T04:14:54;7.60;99.90
48752;DHT22;34544;48.836;9.174;2022-11-15T04:17:55;7.70;99.90
48752;DHT22;34544;48.836;9.174;2022-11-15T04:20:40;7.70;99.90
48752;DHT22;34544;48.836;9.174;2022-11-15T04:23:43;7.80;99.90
48752;DHT22;34544;48.836;9.174;2022-11-15T04:26:46;7.80;99.90
48752;DHT22;34544;48.836;9.174;2022-11-15T04:29:30;7.80;99.90
48752;DHT22;34544;48.836;9.174;2022-11-15T04:32:20;7.80;99.90
48752;DHT22;34544;48.836;9.174;2022-11-15T04:35:05;7.90;99.90
48752;DHT22;34544;48.836;9.174;2022-11-15T04:37:49;7.90;99.90
48752;DHT22;34544;48.836;9.174;2022-11-15T04:40:35;8.00;99.90
48752;DHT22;34544;48.836;9.174;2022-11-15T04:43:19;8.00;99.90
48752;DHT22;34544;48.836;9.174;2022-11-15T04:46:03;8.00;99.90
48752;DHT22;34544;48.836;9.174;2022-11-15T04:48:47;8.00;99.90
48752;DHT22;34544;48.836;9.174;2022-11-15T04:51:31;8.00;99.90
48752;DHT22;34544;48.836;9.174;2022-11-15T04:54:15;7.90;99.90
48752;DHT22;34544;48.836;9.174;2022-11-15T04:56:59;7.90;99.90
48752;DHT22;34544;48.836;9.174;2022-11-15T04:59:43;7.80;99.90
48752;DHT22;34544;48.836;9.174;2022-11-15T05:02:27;7.70;99.90
48752;DHT22;34544;48.836;9.174;2022-11-15T05:05:32;7.60;99.90
48752;DHT22;34544;48.836;9.174;2022-11-15T05:08:16;7.50;99.90
48752;DHT22;34544;48.836;9.174;2022-11-15T05:11:00;7.50;99.90
48752;DHT22;34544;48.836;9.174;2022-11-15T05:13:44;7.40;99.90
48752;DHT22;34544;48.836;9.174;2022-11-15T05:16:28;7.40;99.90
48752;DHT22;34544;48.836;9.174;2022-11-15T05:19:12;7.40;99.90
48752;DHT22;34544;48.836;9.174;2022-11-15T05:21:56;7.40;99.90
48752;DHT22;34544;48.836;9.174;2022-11-15T05:24:40;7.30;99.90
48752;DHT22;34544;48.836;9.174;2022-11-15T05:27:24;7.30;99.90
48752;DHT22;34544;48.836;9.174;2022-11-15T05:30:09;7.30;99.90
48752;DHT22;34544;48.836;9.174;2022-11-15T05:32:53;7.30;99.90
48752;DHT22;34544;48.836;9.174;2022-11-15T05:35:42;7.20;99.90
48752;DHT22;34544;48.836;9.174;2022-11-15T05:38:30;7.20;99.90
48752;DHT22;34544;48.836;9.174;2022-11-15T05:41:17;7.20;99.90
48752;DHT22;34544;48.836;9.174;2022-11-15T05:44:06;7.20;99.90
48752;DHT22;34544;48.836;9.174;2022-11-15T05:46:53;7.30;99.90
48752;DHT22;34544;48.836;9.174;2022-11-15T05:49:40;7.30;99.90
48752;DHT22;34544;48.836;9.174;2022-11-15T05:52:30;7.40;99.90
48752;DHT22;34544;48.836;9.174;2022-11-15T05:55:15;7.40;99.90
48752;DHT22;34544;48.836;9.174;2022-11-15T05:58:00;7.40;99.90
48752;DHT22;34544;48.836;9.174;2022-11-15T06:00:45;7.40;99.90
48752;DHT22;34544;48.836;9.174;2022-11-15T06:03:29;7.50;99.90
48752;DHT22;34544;48.836;9.174;2022-11-15T06:06:13;7.50;99.90
48752;DHT22;34544;48.836;9.174;2022-11-15T06:08:57;7.50;99.90
48752;DHT22;34544;48.836;9.174;2022-11-15T06:11:41;7.50;99.90
48752;DHT22;34544;48.836;9.174;2022-11-15T06:14:26;7.50;99.90
48752;DHT22;34544;48.836;9.174;2022-11-15T06:17:10;7.60;99.90
48752;DHT22;34544;48.836;9.174;2022-11-15T06:19:54;7.60;99.90
48752;DHT22;34544;48.836;9.174;2022-11-15T06:22:38;7.60;99.90
48752;DHT22;34544;48.836;9.174;2022-11-15T06:25:22;7.60;99.90
48752;DHT22;34544;48.836;9.174;2022-11-15T06:28:06;7.60;99.90
48752;DHT22;34544;48.836;9.174;2022-11-15T06:30:51;7.60;99.90
48752;DHT22;34544;48.836;9.174;2022-11-15T06:33:35;7.60;99.90
48752;DHT22;34544;48.836;9.174;2022-11-15T06:36:19;7.70;99.90
48752;DHT22;34544;48.836;9.174;2022-11-15T06:39:04;7.70;99.90
48752;DHT22;34544;48.836;9.174;2022-11-15T06:41:49;7.70;99.90
48752;DHT22;34544;48.836;9.174;2022-11-15T06:44:33;7.80;99.90
48752;DHT22;34544;48.836;9.174;2022-11-15T06:47:17;7.80;99.90
48752;DHT22;34544;48.836;9.174;2022-11-15T06:50:01;7.90;99.90
48752;DHT22;34544;48.836;9.174;2022-11-15T06:52:45;7.90;99.90
48752;DHT22;34544;48.836;9.174;2022-11-15T06:55:29;8.00;99.90
48752;DHT22;34544;48.836;9.174;2022-11-15T06:58:13;8.00;99.90
48752;DHT22;34544;48.836;9.174;2022-11-15T07:00:59;8.10;99.90
48752;DHT22;34544;48.836;9.174;2022-11-15T07:03:44;8.20;99.90
48752;DHT22;34544;48.836;9.174;2022-11-15T07:06:30;8.40;99.90
48752;DHT22;34544;48.836;9.174;2022-11-15T07:09:14;8.60;99.90
48752;DHT22;34544;48.836;9.174;2022-11-15T07:11:58;8.80;99.90
48752;DHT22;34544;48.836;9.174;2022-11-15T07:14:42;9.00;99.90
48752;DHT22;34544;48.836;9.174;2022-11-15T07:17:27;9.10;99.90
48752;DHT22;34544;48.836;9.174;2022-11-15T07:20:11;9.30;99.90
48752;DHT22;34544;48.836;9.174;2022-11-15T07:23:06;9.40;99.90
48752;DHT22;34544;48.836;9.174;2022-11-15T07:25:50;9.50;99.90
48752;DHT22;34544;48.836;9.174;2022-11-15T07:28:34;9.70;99.90
48752;DHT22;34544;48.836;9.174;2022-11-15T07:31:18;9.90;99.90
48752;DHT22;34544;48.836;9.174;2022-11-15T07:34:02;10.10;99.90
48752;DHT22;34544;48.836;9.174;2022-11-15T07:36:46;10.30;99.90
48752;DHT22;34544;48.836;9.174;2022-11-15T07:39:30;10.50;99.90
48752;DHT22;34544;48.836;9.174;2022-11-15T07:42:14;10.80;99.90
48752;DHT22;34544;48.836;9.174;2022-11-15T07:45:17;11.20;99.90
48752;DHT22;34544;48.836;9.174;2022-11-15T07:48:02;11.60;99.90
48752;DHT22;34544;48.836;9.174;2022-11-15T07:50:46;12.10;99.90
48752;DHT22;34544;48.836;9.174;2022-11-15T07:53:30;12.50;99.90
48752;DHT22;34544;48.836;9.174;2022-11-15T07:56:14;12.80;99.90
48752;DHT22;34544;48.836;9.174;2022-11-15T07:58:58;13.00;99.90
48752;DHT22;34544;48.836;9.174;2022-11-15T08:01:43;12.90;99.90
48752;DHT22;34544;48.836;9.174;2022-11-15T08:04:27;12.80;99.90
48752;DHT22;34544;48.836;9.174;2022-11-15T08:07:11;12.80;99.90
48752;DHT22;34544;48.836;9.174;2022-11-15T08:09:55;12.80;99.90
48752;DHT22;34544;48.836;9.174;2022-11-15T08:12:39;12.90;99.90
48752;DHT22;34544;48.836;9.174;2022-11-15T08:15:23;13.20;99.90
48752;DHT22;34544;48.836;9.174;2022-11-15T08:18:13;13.60;99.90
48752;DHT22;34544;48.836;9.174;2022-11-15T08:21:01;13.90;99.90
48752;DHT22;34544;48.836;9.174;2022-11-15T08:23:46;14.10;99.90
48752;DHT22;34544;48.836;9.174;2022-11-15T08:26:30;14.30;99.90
48752;DHT22;34544;48.836;9.174;2022-11-15T08:29:14;14.60;99.90
48752;DHT22;34544;48.836;9.174;2022-11-15T08:31:58;14.90;99.90
48752;DHT22;34544;48.836;9.174;2022-11-15T08:34:42;15.10;99.90
48752;DHT22;34544;48.836;9.174;2022-11-15T08:37:26;15.60;99.90
48752;DHT22;34544;48.836;9.174;2022-11-15T08:40:10;15.90;99.90
48752;DHT22;34544;48.836;9.174;2022-11-15T08:42:55;16.10;99.90
48752;DHT22;34544;48.836;9.174;2022-11-15T08:45:39;16.10;99.90
48752;DHT22;34544;48.836;9.174;2022-11-15T08:48:23;16.10;99.90
48752;DHT22;34544;48.836;9.174;2022-11-15T08:51:07;16.30;99.90
48752;DHT22;34544;48.836;9.174;2022-11-15T08:53:51;16.80;99.90
48752;DHT22;34544;48.836;9.174;2022-11-15T08:56:35;17.30;99.90
48752;DHT22;34544;48.836;9.174;2022-11-15T08:59:19;17.50;99.90
48752;DHT22;34544;48.836;9.174;2022-11-15T09:02:04;17.70;99.90
48752;DHT22;34544;48.836;9.174;2022-11-15T09:04:49;17.90;99.90
48752;DHT22;34544;48.836;9.174;2022-11-15T09:07:33;18.10;99.90
48752;DHT22;34544;48.836;9.174;2022-11-15T09:10:17;18.30;99.90
48752;DHT22;34544;48.836;9.174;2022-11-15T09:13:01;18.40;99.90
48752;DHT22;34544;48.836;9.174;2022-11-15T09:15:46;18.40;99.90
48752;DHT22;34544;48.836;9.174;2022-11-15T09:18:31;18.20;99.90
48752;DHT22;34544;48.836;9.174;2022-11-15T09:21:15;18.20;99.90
48752;DHT22;34544;48.836;9.174;2022-11-15T09:23:59;18.20;99.90
48752;DHT22;34544;48.836;9.174;2022-11-15T09:26:43;18.20;99.90
48752;DHT22;34544;48.836;9.174;2022-11-15T09:29:27;18.10;99.90
48752;DHT22;34544;48.836;9.174;2022-11-15T09:32:11;17.80;99.90
48752;DHT22;34544;48.836;9.174;2022-11-15T09:34:55;17.70;99.90
48752;DHT22;34544;48.836;9.174;2022-11-15T09:37:40;17.50;99.90
48752;DHT22;34544;48.836;9.174;2022-11-15T09:40:24;17.30;99.90
48752;DHT22;34544;48.836;9.174;2022-11-15T09:49:11;17.70;99.90
48752;DHT22;34544;48.836;9.174;2022-11-15T09:51:57;17.90;99.90
48752;DHT22;34544;48.836;9.174;2022-11-15T09:54:41;18.20;99.90
48752;DHT22;34544;48.836;9.174;2022-11-15T09:57:15;18.60;99.90
48752;DHT22;34544;48.836;9.174;2022-11-15T09:59:55;18.90;99.90
48752;DHT22;34544;48.836;9.174;2022-11-15T10:05:00;19.20;99.90
48752;DHT22;34544;48.836;9.174;2022-11-15T10:07:37;19.30;99.90
48752;DHT22;34544;48.836;9.174;2022-11-15T10:12:37;19.00;99.90
48752;DHT22;34544;48.836;9.174;2022-11-15T10:15:15;18.70;99.90
48752;DHT22;34544;48.836;9.174;2022-11-15T10:17:53;18.30;99.90
48752;DHT22;34544;48.836;9.174;2022-11-15T10:20:23;18.00;99.90
48752;DHT22;34544;48.836;9.174;2022-11-15T10:23:13;17.60;99.90
48752;DHT22;34544;48.836;9.174;2022-11-15T10:25:39;17.30;99.90
48752;DHT22;34544;48.836;9.174;2022-11-15T10:28:22;17.10;99.90
48752;DHT22;34544;48.836;9.174;2022-11-15T10:30:51;17.00;99.90
48752;DHT22;34544;48.836;9.174;2022-11-15T10:33:35;16.70;99.90
48752;DHT22;34544;48.836;9.174;2022-11-15T10:41:14;16.40;99.90
48752;DHT22;34544;48.836;9.174;2022-11-15T10:43:41;16.20;99.90
48752;DHT22;34544;48.836;9.174;2022-11-15T10:46:21;16.20;99.90
48752;DHT22;34544;48.836;9.174;2022-11-15T10:48:47;16.00;99.90
48752;DHT22;34544;48.836;9.174;2022-11-15T10:51:26;15.90;99.90
48752;DHT22;34544;48.836;9.174;2022-11-15T10:53:59;15.80;99.90
48752;DHT22;34544;48.836;9.174;2022-11-15T10:56:26;15.70;99.90
48752;DHT22;34544;48.836;9.174;2022-11-15T10:58:56;15.70;99.90
48752;DHT22;34544;48.836;9.174;2022-11-15T11:01:24;15.60;99.90
48752;DHT22;34544;48.836;9.174;2022-11-15T11:04:09;15.60;99.90
48752;DHT22;34544;48.836;9.174;2022-11-15T11:06:52;15.60;99.90
48752;DHT22;34544;48.836;9.174;2022-11-15T11:09:34;15.50;99.90
48752;DHT22;34544;48.836;9.174;2022-11-15T11:12:02;15.40;99.90
48752;DHT22;34544;48.836;9.174;2022-11-15T11:14:34;15.30;99.90
48752;DHT22;34544;48.836;9.174;2022-11-15T11:25:36;15.00;99.90
48752;DHT22;34544;48.836;9.174;2022-11-15T11:34:27;14.90;99.90
48752;DHT22;34544;48.836;9.174;2022-11-15T11:37:07;14.90;99.90
48752;DHT22;34544;48.836;9.174;2022-11-15T11:42:34;15.10;99.90
48752;DHT22;34544;48.836;9.174;2022-11-15T11:45:19;15.10;99.90
48752;DHT22;34544;48.836;9.174;2022-11-15T11:47:51;15.20;99.90
48752;DHT22;34544;48.836;9.174;2022-11-15T11:50:27;15.20;99.90
48752;DHT22;34544;48.836;9.174;2022-11-15T11:55:28;15.30;99.90
48752;DHT22;34544;48.836;9.174;2022-11-15T12:00:51;15.50;99.90
48752;DHT22;34544;48.836;9.174;2022-11-15T12:03:39;15.60;99.90
48752;DHT22;34544;48.836;9.174;2022-11-15T12:08:56;15.80;99.90
48752;DHT22;34544;48.836;9.174;2022-11-15T12:11:36;16.00;99.90
48752;DHT22;34544;48.836;9.174;2022-11-15T12:14:11;16.10;99.90
48752;DHT22;34544;48.836;9.174;2022-11-15T12:16:39;16.30;99.90
48752;DHT22;34544;48.836;9.174;2022-11-15T12:19:07;16.40;99.90
48752;DHT22;34544;48.836;9.174;2022-11-15T12:21:46;16.30;99.90
48752;DHT22;34544;48.836;9.174;2022-11-15T12:24:28;16.30;99.90
48752;DHT22;34544;48.836;9.174;2022-11-15T12:27:06;16.20;99.90
48752;DHT22;34544;48.836;9.174;2022-11-15T12:29:41;16.10;99.90
48752;DHT22;34544;48.836;9.174;2022-11-15T12:34:45;15.80;99.90
48752;DHT22;34544;48.836;9.174;2022-11-15T12:45:40;15.30;99.90
48752;DHT22;34544;48.836;9.174;2022-11-15T12:50:55;15.10;99.90
48752;DHT22;34544;48.836;9.174;2022-11-15T12:58:56;15.10;99.90
48752;DHT22;34544;48.836;9.174;2022-11-15T13:07:03;14.90;99.90
48752;DHT22;34544;48.836;9.174;2022-11-15T13:17:27;14.70;99.90
48752;DHT22;34544;48.836;9.174;2022-11-15T13:22:28;14.70;99.90
48752;DHT22;34544;48.836;9.174;2022-11-15T13:28:43;14.60;99.90
48752;DHT22;34544;48.836;9.174;2022-11-15T13:33:51;14.50;99.90
48752;DHT22;34544;48.836;9.174;2022-11-15T13:36:26;14.60;99.90
48752;DHT22;34544;48.836;9.174;2022-11-15T13:38:55;14.50;99.90
48752;DHT22;34544;48.836;9.174;2022-11-15T13:41:24;14.50;99.90
48752;DHT22;34544;48.836;9.174;2022-11-15T13:43:52;14.40;99.90
48752;DHT22;34544;48.836;9.174;2022-11-15T13:46:23;14.40;99.90
48752;DHT22;34544;48.836;9.174;2022-11-15T13:49:09;14.40;99.90
48752;DHT22;34544;48.836;9.174;2022-11-15T13:51:45;14.40;99.90
48752;DHT22;34544;48.836;9.174;2022-11-15T13:56:39;14.30;99.90
48752;DHT22;34544;48.836;9.174;2022-11-15T13:59:10;14.30;99.90
48752;DHT22;34544;48.836;9.174;2022-11-15T14:01:36;14.30;99.90
48752;DHT22;34544;48.836;9.174;2022-11-15T14:04:03;14.20;99.90
48752;DHT22;34544;48.836;9.174;2022-11-15T14:06:29;14.20;99.90
48752;DHT22;34544;48.836;9.174;2022-11-15T14:11:37;14.10;99.90
48752;DHT22;34544;48.836;9.174;2022-11-15T14:16:39;14.00;99.90
48752;DHT22;34544;48.836;9.174;2022-11-15T14:19:08;13.90;99.90
48752;DHT22;34544;48.836;9.174;2022-11-15T14:21:35;13.80;99.90
48752;DHT22;34544;48.836;9.174;2022-11-15T14:26:42;13.80;99.90
48752;DHT22;34544;48.836;9.174;2022-11-15T14:29:27;13.70;99.90
48752;DHT22;34544;48.836;9.174;2022-11-15T14:31:55;13.70;99.90
48752;DHT22;34544;48.836;9.174;2022-11-15T14:34:32;13.70;99.90
48752;DHT22;34544;48.836;9.174;2022-11-15T14:36:57;13.60;99.90
48752;DHT22;34544;48.836;9.174;2022-11-15T14:39:23;13.60;99.90
48752;DHT22;34544;48.836;9.174;2022-11-15T14:41:50;13.60;99.90
48752;DHT22;34544;48.836;9.174;2022-11-15T14:44:16;13.60;99.90
48752;DHT22;34544;48.836;9.174;2022-11-15T14:46:44;13.50;99.90
48752;DHT22;34544;48.836;9.174;2022-11-15T14:49:09;13.60;99.90
48752;DHT22;34544;48.836;9.174;2022-11-15T14:51:35;13.60;99.90
48752;DHT22;34544;48.836;9.174;2022-11-15T14:54:01;13.50;99.90
48752;DHT22;34544;48.836;9.174;2022-11-15T14:56:27;13.60;99.90
48752;DHT22;34544;48.836;9.174;2022-11-15T14:58:52;13.50;99.90
48752;DHT22;34544;48.836;9.174;2022-11-15T15:01:23;13.60;99.90
48752;DHT22;34544;48.836;9.174;2022-11-15T15:03:49;13.60;99.90
48752;DHT22;34544;48.836;9.174;2022-11-15T15:06:17;13.60;99.90
48752;DHT22;34544;48.836;9.174;2022-11-15T15:08:44;13.60;99.90
48752;DHT22;34544;48.836;9.174;2022-11-15T15:11:14;13.60;99.90
48752;DHT22;34544;48.836;9.174;2022-11-15T15:13:40;13.50;99.90
48752;DHT22;34544;48.836;9.174;2022-11-15T15:16:05;13.50;99.90
48752;DHT22;34544;48.836;9.174;2022-11-15T15:18:31;13.50;99.90
48752;DHT22;34544;48.836;9.174;2022-11-15T15:20:59;13.40;99.90
48752;DHT22;34544;48.836;9.174;2022-11-15T15:23:27;13.50;99.90
48752;DHT22;34544;48.836;9.174;2022-11-15T15:25:56;13.50;99.90
48752;DHT22;34544;48.836;9.174;2022-11-15T15:28:21;13.50;99.90
48752;DHT22;34544;48.836;9.174;2022-11-15T15:30:47;13.50;99.90
48752;DHT22;34544;48.836;9.174;2022-11-15T15:33:13;13.50;99.90
48752;DHT22;34544;48.836;9.174;2022-11-15T15:35:38;13.50;99.90
48752;DHT22;34544;48.836;9.174;2022-11-15T15:38:04;13.40;99.90
48752;DHT22;34544;48.836;9.174;2022-11-15T15:40:31;13.40;99.90
48752;DHT22;34544;48.836;9.174;2022-11-15T15:42:57;13.40;99.90
48752;DHT22;34544;48.836;9.174;2022-11-15T15:45:25;13.40;99.90
48752;DHT22;34544;48.836;9.174;2022-11-15T15:47:52;13.40;99.90
48752;DHT22;34544;48.836;9.174;2022-11-15T15:50:31;13.30;99.90
48752;DHT22;34544;48.836;9.174;2022-11-15T15:52:58;13.30;99.90
48752;DHT22;34544;48.836;9.174;2022-11-15T15:55:25;13.30;99.90
48752;DHT22;34544;48.836;9.174;2022-11-15T15:57:51;13.30;99.90
48752;DHT22;34544;48.836;9.174;2022-11-15T16:00:18;13.30;99.90
48752;DHT22;34544;48.836;9.174;2022-11-15T16:02:44;13.30;99.90
48752;DHT22;34544;48.836;9.174;2022-11-15T16:05:11;13.30;99.90
48752;DHT22;34544;48.836;9.174;2022-11-15T16:07:38;13.30;99.90
48752;DHT22;34544;48.836;9.174;2022-11-15T16:10:24;13.20;99.90
48752;DHT22;34544;48.836;9.174;2022-11-15T16:12:54;13.30;99.90
48752;DHT22;34544;48.836;9.174;2022-11-15T16:15:21;13.20;99.90
48752;DHT22;34544;48.836;9.174;2022-11-15T16:17:50;13.20;99.90
48752;DHT22;34544;48.836;9.174;2022-11-15T16:23:03;13.20;99.90
48752;DHT22;34544;48.836;9.174;2022-11-15T16:25:32;13.20;99.90
48752;DHT22;34544;48.836;9.174;2022-11-15T16:27:59;13.30;99.90
48752;DHT22;34544;48.836;9.174;2022-11-15T16:30:24;13.20;99.90
48752;DHT22;34544;48.836;9.174;2022-11-15T16:32:50;13.20;99.90
48752;DHT22;34544;48.836;9.174;2022-11-15T16:35:17;13.20;99.90
48752;DHT22;34544;48.836;9.174;2022-11-15T16:37:43;13.10;99.90
48752;DHT22;34544;48.836;9.174;2022-11-15T16:40:30;13.10;99.90
48752;DHT22;34544;48.836;9.174;2022-11-15T16:42:57;13.00;99.90
48752;DHT22;34544;48.836;9.174;2022-11-15T16:45:24;13.00;99.90
48752;DHT22;34544;48.836;9.174;2022-11-15T16:47:51;13.00;99.90
48752;DHT22;34544;48.836;9.174;2022-11-15T16:50:23;12.90;99.90
48752;DHT22;34544;48.836;9.174;2022-11-15T16:52:54;12.90;99.90
48752;DHT22;34544;48.836;9.174;2022-11-15T16:55:21;12.80;99.90
48752;DHT22;34544;48.836;9.174;2022-11-15T16:57:47;12.80;99.90
48752;DHT22;34544;48.836;9.174;2022-11-15T17:00:14;12.80;99.90
48752;DHT22;34544;48.836;9.174;2022-11-15T17:02:43;12.70;99.90
48752;DHT22;34544;48.836;9.174;2022-11-15T17:05:10;12.70;99.90
48752;DHT22;34544;48.836;9.174;2022-11-15T17:07:36;12.70;99.90
48752;DHT22;34544;48.836;9.174;2022-11-15T17:10:02;12.60;99.90
48752;DHT22;34544;48.836;9.174;2022-11-15T17:12:28;12.60;99.90
48752;DHT22;34544;48.836;9.174;2022-11-15T17:14:56;12.60;99.90
48752;DHT22;34544;48.836;9.174;2022-11-15T17:17:22;12.60;99.90
48752;DHT22;34544;48.836;9.174;2022-11-15T17:19:47;12.60;99.90
48752;DHT22;34544;48.836;9.174;2022-11-15T17:22:13;12.60;99.90
48752;DHT22;34544;48.836;9.174;2022-11-15T17:24:39;12.60;99.90
48752;DHT22;34544;48.836;9.174;2022-11-15T17:27:04;12.60;99.90
48752;DHT22;34544;48.836;9.174;2022-11-15T17:29:30;12.60;99.90
48752;DHT22;34544;48.836;9.174;2022-11-15T17:31:56;12.70;99.90
48752;DHT22;34544;48.836;9.174;2022-11-15T17:34:21;12.70;99.90
48752;DHT22;34544;48.836;9.174;2022-11-15T17:36:48;12.70;99.90
48752;DHT22;34544;48.836;9.174;2022-11-15T17:39:13;12.80;99.90
48752;DHT22;34544;48.836;9.174;2022-11-15T17:41:39;12.70;99.90
48752;DHT22;34544;48.836;9.174;2022-11-15T17:44:05;12.70;99.90
48752;DHT22;34544;48.836;9.174;2022-11-15T17:46:30;12.70;99.90
48752;DHT22;34544;48.836;9.174;2022-11-15T17:48:58;12.70;99.90
48752;DHT22;34544;48.836;9.174;2022-11-15T17:51:24;12.70;99.90
48752;DHT22;34544;48.836;9.174;2022-11-15T17:53:50;12.80;99.90
48752;DHT22;34544;48.836;9.174;2022-11-15T17:56:22;12.90;99.90
48752;DHT22;34544;48.836;9.174;2022-11-15T17:58:51;13.00;99.90
48752;DHT22;34544;48.836;9.174;2022-11-15T18:01:23;13.00;99.90
48752;DHT22;34544;48.836;9.174;2022-11-15T18:03:49;13.10;99.90
48752;DHT22;34544;48.836;9.174;2022-11-15T18:06:16;13.20;99.90
48752;DHT22;34544;48.836;9.174;2022-11-15T18:08:44;13.20;99.90
48752;DHT22;34544;48.836;9.174;2022-11-15T18:11:12;13.20;99.90
48752;DHT22;34544;48.836;9.174;2022-11-15T18:13:40;13.20;99.90
48752;DHT22;34544;48.836;9.174;2022-11-15T18:16:10;13.20;99.90
48752;DHT22;34544;48.836;9.174;2022-11-15T18:18:36;13.20;99.90
48752;DHT22;34544;48.836;9.174;2022-11-15T18:23:34;13.20;99.90
48752;DHT22;34544;48.836;9.174;2022-11-15T18:26:02;13.30;99.90
48752;DHT22;34544;48.836;9.174;2022-11-15T18:28:35;13.30;99.90
48752;DHT22;34544;48.836;9.174;2022-11-15T18:31:10;13.20;99.90
48752;DHT22;34544;48.836;9.174;2022-11-15T18:33:37;13.20;99.90
48752;DHT22;34544;48.836;9.174;2022-11-15T18:36:05;13.20;99.90
48752;DHT22;34544;48.836;9.174;2022-11-15T18:38:32;13.20;99.90
48752;DHT22;34544;48.836;9.174;2022-11-15T18:41:12;13.20;99.90
48752;DHT22;34544;48.836;9.174;2022-11-15T18:43:39;13.10;99.90
48752;DHT22;34544;48.836;9.174;2022-11-15T18:46:10;13.00;99.90
48752;DHT22;34544;48.836;9.174;2022-11-15T18:48:37;13.00;99.90
48752;DHT22;34544;48.836;9.174;2022-11-15T18:51:07;12.90;99.90
48752;DHT22;34544;48.836;9.174;2022-11-15T18:53:34;12.90;99.90